sensor_id;sensor_type;location;lat;lon;timestamp;temperature;humidity
31619;DHT22;18230;51.502;7.108;2022-09-01T00:04:21;19.20;99.20
31619;DHT22;18230;51.502;7.108;2022-09-01T00:09:25;19.10;99.50
31619;DHT22;18230;51.502;7.108;2022-09-01T00:14:30;19.00;99.60
31619;DHT22;18230;51.502;7.108;2022-09-01T00:19:31;18.90;99.90
31619;DHT22;18230;51.502;7.108;2022-09-01T00:24:32;18.90;99.90
31619;DHT22;18230;51.502;7.108;2022-09-01T00:29:33;18.80;99.90
31619;DHT22;18230;51.502;7.108;2022-09-01T00:34:34;18.80;99.90
31619;DHT22;18230;51.502;7.108;2022-09-01T00:39:35;18.80;99.90
31619;DHT22;18230;51.502;7.108;2022-09-01T00:44:35;18.70;99.90
31619;DHT22;18230;51.502;7.108;2022-09-01T00:49:40;18.70;99.90
31619;DHT22;18230;51.502;7.108;2022-09-01T00:54:50;18.70;99.90
31619;DHT22;18230;51.502;7.108;2022-09-01T00:59:58;18.60;99.90
31619;DHT22;18230;51.502;7.108;2022-09-01T01:04:59;18.60;99.90
31619;DHT22;18230;51.502;7.108;2022-09-01T01:10:02;18.60;99.90
31619;DHT22;18230;51.502;7.108;2022-09-01T01:15:03;18.50;99.90
31619;DHT22;18230;51.502;7.108;2022-09-01T01:20:07;18.50;99.90
31619;DHT22;18230;51.502;7.108;2022-09-01T01:30:38;18.30;99.90
31619;DHT22;18230;51.502;7.108;2022-09-01T01:35:39;18.30;99.90
31619;DHT22;18230;51.502;7.108;2022-09-01T01:40:41;18.10;99.90
31619;DHT22;18230;51.502;7.108;2022-09-01T01:45:42;18.00;99.90
31619;DHT22;18230;51.502;7.108;2022-09-01T01:50:42;18.00;99.90
31619;DHT22;18230;51.502;7.108;2022-09-01T01:55:47;17.90;99.90
31619;DHT22;18230;51.502;7.108;2022-09-01T02:00:50;17.80;99.90
31619;DHT22;18230;51.502;7.108;2022-09-01T02:05:53;17.70;99.90
31619;DHT22;18230;51.502;7.108;2022-09-01T02:10:54;17.50;99.90
31619;DHT22;18230;51.502;7.108;2022-09-01T02:16:04;17.50;99.90
31619;DHT22;18230;51.502;7.108;2022-09-01T02:21:09;17.50;99.90
31619;DHT22;18230;51.502;7.108;2022-09-01T02:26:10;17.40;99.90
31619;DHT22;18230;51.502;7.108;2022-09-01T02:31:11;17.40;99.90
31619;DHT22;18230;51.502;7.108;2022-09-01T02:36:14;17.40;99.90
31619;DHT22;18230;51.502;7.108;2022-09-01T02:41:15;17.20;99.90
31619;DHT22;18230;51.502;7.108;2022-09-01T02:46:19;17.20;99.90
31619;DHT22;18230;51.502;7.108;2022-09-01T02:51:25;17.10;99.90
31619;DHT22;18230;51.502;7.108;2022-09-01T02:56:25;17.10;99.90
31619;DHT22;18230;51.502;7.108;2022-09-01T03:01:29;17.00;99.90
31619;DHT22;18230;51.502;7.108;2022-09-01T03:06:31;16.90;99.90
31619;DHT22;18230;51.502;7.108;2022-09-01T03:11:37;16.90;99.90
31619;DHT22;18230;51.502;7.108;2022-09-01T03:16:38;16.90;99.90
31619;DHT22;18230;51.502;7.108;2022-09-01T03:21:42;16.90;99.90
31619;DHT22;18230;51.502;7.108;2022-09-01T03:26:44;16.80;99.90
31619;DHT22;18230;51.502;7.108;2022-09-01T03:31:46;16.80;99.90
31619;DHT22;18230;51.502;7.108;2022-09-01T03:36:47;16.80;99.90
31619;DHT22;18230;51.502;7.108;2022-09-01T03:41:51;16.70;99.90
31619;DHT22;18230;51.502;7.108;2022-09-01T03:46:51;16.60;99.90
31619;DHT22;18230;51.502;7.108;2022-09-01T03:51:52;16.60;99.90
31619;DHT22;18230;51.502;7.108;2022-09-01T03:56:53;16.40;99.90
31619;DHT22;18230;51.502;7.108;2022-09-01T04:01:54;16.40;99.90
31619;DHT22;18230;51.502;7.108;2022-09-01T04:06:57;16.40;99.90
31619;DHT22;18230;51.502;7.108;2022-09-01T04:11:59;16.40;99.90
31619;DHT22;18230;51.502;7.108;2022-09-01T04:17:00;16.20;99.90
31619;DHT22;18230;51.502;7.108;2022-09-01T04:22:19;16.20;99.90
31619;DHT22;18230;51.502;7.108;2022-09-01T04:27:20;16.00;99.90
31619;DHT22;18230;51.502;7.108;2022-09-01T04:32:22;16.00;99.90
31619;DHT22;18230;51.502;7.108;2022-09-01T04:37:25;15.80;99.90
31619;DHT22;18230;51.502;7.108;2022-09-01T04:42:28;15.80;99.90
31619;DHT22;18230;51.502;7.108;2022-09-01T04:47:31;15.70;99.90
31619;DHT22;18230;51.502;7.108;2022-09-01T04:52:33;15.70;99.90
31619;DHT22;18230;51.502;7.108;2022-09-01T04:57:35;15.70;99.90
31619;DHT22;18230;51.502;7.108;2022-09-01T05:02:36;15.70;99.90
31619;DHT22;18230;51.502;7.108;2022-09-01T05:07:39;15.80;99.90
31619;DHT22;18230;51.502;7.108;2022-09-01T05:12:40;16.00;99.90
31619;DHT22;18230;51.502;7.108;2022-09-01T05:17:42;16.40;99.90
31619;DHT22;18230;51.502;7.108;2022-09-01T05:22:43;16.80;99.90
31619;DHT22;18230;51.502;7.108;2022-09-01T05:27:47;16.70;99.90
31619;DHT22;18230;51.502;7.108;2022-09-01T05:32:52;16.60;99.90
31619;DHT22;18230;51.502;7.108;2022-09-01T05:37:54;16.70;99.90
31619;DHT22;18230;51.502;7.108;2022-09-01T05:42:55;16.80;99.90
31619;DHT22;18230;51.502;7.108;2022-09-01T05:47:56;16.80;99.90
31619;DHT22;18230;51.502;7.108;2022-09-01T05:52:59;17.00;99.90
31619;DHT22;18230;51.502;7.108;2022-09-01T05:57:59;17.10;99.90
31619;DHT22;18230;51.502;7.108;2022-09-01T06:03:00;17.20;99.90
31619;DHT22;18230;51.502;7.108;2022-09-01T06:08:05;17.40;99.90
31619;DHT22;18230;51.502;7.108;2022-09-01T06:13:08;17.60;99.90
31619;DHT22;18230;51.502;7.108;2022-09-01T06:18:12;17.80;99.90
31619;DHT22;18230;51.502;7.108;2022-09-01T06:23:15;18.00;99.90
31619;DHT22;18230;51.502;7.108;2022-09-01T06:28:17;18.40;99.90
31619;DHT22;18230;51.502;7.108;2022-09-01T06:33:20;18.50;99.90
31619;DHT22;18230;51.502;7.108;2022-09-01T06:38:22;18.70;99.90
31619;DHT22;18230;51.502;7.108;2022-09-01T06:43:24;18.70;99.90
31619;DHT22;18230;51.502;7.108;2022-09-01T06:48:46;18.60;99.90
31619;DHT22;18230;51.502;7.108;2022-09-01T06:54:31;18.90;99.90
31619;DHT22;18230;51.502;7.108;2022-09-01T06:59:34;18.90;99.90
31619;DHT22;18230;51.502;7.108;2022-09-01T07:04:35;18.90;99.90
31619;DHT22;18230;51.502;7.108;2022-09-01T07:09:45;18.90;99.90
31619;DHT22;18230;51.502;7.108;2022-09-01T07:14:46;18.80;99.90
31619;DHT22;18230;51.502;7.108;2022-09-01T07:19:48;18.90;99.90
31619;DHT22;18230;51.502;7.108;2022-09-01T07:24:49;19.10;99.90
31619;DHT22;18230;51.502;7.108;2022-09-01T07:29:58;19.30;99.90
31619;DHT22;18230;51.502;7.108;2022-09-01T07:35:00;19.50;99.90
31619;DHT22;18230;51.502;7.108;2022-09-01T07:40:01;19.70;99.90
31619;DHT22;18230;51.502;7.108;2022-09-01T07:45:03;19.80;99.90
31619;DHT22;18230;51.502;7.108;2022-09-01T07:50:09;20.00;99.90
31619;DHT22;18230;51.502;7.108;2022-09-01T07:55:12;20.20;99.90
31619;DHT22;18230;51.502;7.108;2022-09-01T08:00:14;20.30;99.90
31619;DHT22;18230;51.502;7.108;2022-09-01T08:05:17;20.40;99.90
31619;DHT22;18230;51.502;7.108;2022-09-01T08:10:22;20.70;99.90
31619;DHT22;18230;51.502;7.108;2022-09-01T08:15:23;20.80;99.90
31619;DHT22;18230;51.502;7.108;2022-09-01T08:20:24;21.00;99.90
31619;DHT22;18230;51.502;7.108;2022-09-01T08:25:24;21.20;99.90
31619;DHT22;18230;51.502;7.108;2022-09-01T08:30:25;21.20;99.90
31619;DHT22;18230;51.502;7.108;2022-09-01T08:35:27;21.30;99.90
31619;DHT22;18230;51.502;7.108;2022-09-01T08:40:31;21.50;99.90
31619;DHT22;18230;51.502;7.108;2022-09-01T08:45:46;21.80;99.90
31619;DHT22;18230;51.502;7.108;2022-09-01T08:50:52;21.90;99.30
31619;DHT22;18230;51.502;7.108;2022-09-01T08:55:56;22.10;98.30
31619;DHT22;18230;51.502;7.108;2022-09-01T09:01:03;22.20;98.00
31619;DHT22;18230;51.502;7.108;2022-09-01T09:06:19;22.20;97.10
31619;DHT22;18230;51.502;7.108;2022-09-01T09:17:10;22.40;95.20
31619;DHT22;18230;51.502;7.108;2022-09-01T09:22:15;22.40;95.50
31619;DHT22;18230;51.502;7.108;2022-09-01T09:27:40;22.40;94.80
31619;DHT22;18230;51.502;7.108;2022-09-01T09:33:01;22.60;94.00
31619;DHT22;18230;51.502;7.108;2022-09-01T09:43:18;23.10;92.40
31619;DHT22;18230;51.502;7.108;2022-09-01T09:48:36;23.20;91.90
31619;DHT22;18230;51.502;7.108;2022-09-01T09:53:38;23.20;91.20
31619;DHT22;18230;51.502;7.108;2022-09-01T09:58:40;23.10;91.40
31619;DHT22;18230;51.502;7.108;2022-09-01T10:03:45;23.20;91.20
31619;DHT22;18230;51.502;7.108;2022-09-01T10:08:48;23.20;91.10
31619;DHT22;18230;51.502;7.108;2022-09-01T10:13:49;23.30;90.50
31619;DHT22;18230;51.502;7.108;2022-09-01T10:18:55;23.30;90.40
31619;DHT22;18230;51.502;7.108;2022-09-01T10:24:25;23.30;90.50
31619;DHT22;18230;51.502;7.108;2022-09-01T10:29:33;23.40;90.40
31619;DHT22;18230;51.502;7.108;2022-09-01T10:34:36;23.60;89.70
31619;DHT22;18230;51.502;7.108;2022-09-01T10:40:20;23.70;89.90
31619;DHT22;18230;51.502;7.108;2022-09-01T10:45:35;23.70;89.80
31619;DHT22;18230;51.502;7.108;2022-09-01T10:50:39;23.90;90.20
31619;DHT22;18230;51.502;7.108;2022-09-01T10:55:43;24.00;90.10
31619;DHT22;18230;51.502;7.108;2022-09-01T11:00:47;24.10;90.20
31619;DHT22;18230;51.502;7.108;2022-09-01T11:16:37;24.40;88.50
31619;DHT22;18230;51.502;7.108;2022-09-01T11:21:41;24.50;86.90
31619;DHT22;18230;51.502;7.108;2022-09-01T11:26:51;24.70;87.00
31619;DHT22;18230;51.502;7.108;2022-09-01T11:31:52;24.80;85.10
31619;DHT22;18230;51.502;7.108;2022-09-01T11:36:55;24.90;85.30
31619;DHT22;18230;51.502;7.108;2022-09-01T11:47:20;24.60;85.50
31619;DHT22;18230;51.502;7.108;2022-09-01T11:52:25;24.50;86.20
31619;DHT22;18230;51.502;7.108;2022-09-01T11:57:30;24.40;86.20
31619;DHT22;18230;51.502;7.108;2022-09-01T12:02:51;24.30;85.90
31619;DHT22;18230;51.502;7.108;2022-09-01T12:08:03;24.10;85.80
31619;DHT22;18230;51.502;7.108;2022-09-01T12:18:19;24.70;83.70
31619;DHT22;18230;51.502;7.108;2022-09-01T12:23:30;24.80;83.30
31619;DHT22;18230;51.502;7.108;2022-09-01T12:28:32;24.90;83.10
31619;DHT22;18230;51.502;7.108;2022-09-01T12:33:35;24.80;83.30
31619;DHT22;18230;51.502;7.108;2022-09-01T12:38:35;24.90;83.40
31619;DHT22;18230;51.502;7.108;2022-09-01T12:43:38;25.10;81.80
31619;DHT22;18230;51.502;7.108;2022-09-01T12:48:40;25.10;80.20
31619;DHT22;18230;51.502;7.108;2022-09-01T12:53:57;25.20;80.20
31619;DHT22;18230;51.502;7.108;2022-09-01T13:09:21;25.20;77.20
31619;DHT22;18230;51.502;7.108;2022-09-01T13:14:22;25.40;77.60
31619;DHT22;18230;51.502;7.108;2022-09-01T13:19:28;25.40;77.20
31619;DHT22;18230;51.502;7.108;2022-09-01T13:24:28;25.40;76.30
31619;DHT22;18230;51.502;7.108;2022-09-01T13:29:29;25.10;76.10
31619;DHT22;18230;51.502;7.108;2022-09-01T13:34:32;25.20;76.00
31619;DHT22;18230;51.502;7.108;2022-09-01T13:39:33;25.30;73.90
31619;DHT22;18230;51.502;7.108;2022-09-01T13:44:34;25.40;73.20
31619;DHT22;18230;51.502;7.108;2022-09-01T13:49:34;25.50;72.50
31619;DHT22;18230;51.502;7.108;2022-09-01T13:54:35;25.60;71.20
31619;DHT22;18230;51.502;7.108;2022-09-01T13:59:36;25.80;70.70
31619;DHT22;18230;51.502;7.108;2022-09-01T14:04:37;25.90;69.80
31619;DHT22;18230;51.502;7.108;2022-09-01T14:09:38;26.20;68.30
31619;DHT22;18230;51.502;7.108;2022-09-01T14:14:39;26.40;67.30
31619;DHT22;18230;51.502;7.108;2022-09-01T14:19:39;26.40;66.40
31619;DHT22;18230;51.502;7.108;2022-09-01T14:24:41;26.30;65.60
31619;DHT22;18230;51.502;7.108;2022-09-01T14:29:48;26.50;65.60
31619;DHT22;18230;51.502;7.108;2022-09-01T14:34:49;26.70;64.80
31619;DHT22;18230;51.502;7.108;2022-09-01T14:39:56;26.60;63.70
31619;DHT22;18230;51.502;7.108;2022-09-01T14:44:56;26.90;63.20
31619;DHT22;18230;51.502;7.108;2022-09-01T14:49:57;27.10;62.60
31619;DHT22;18230;51.502;7.108;2022-09-01T14:54:59;27.00;62.40
31619;DHT22;18230;51.502;7.108;2022-09-01T15:00:08;27.10;61.40
31619;DHT22;18230;51.502;7.108;2022-09-01T15:05:11;27.10;61.00
31619;DHT22;18230;51.502;7.108;2022-09-01T15:10:15;27.00;60.40
31619;DHT22;18230;51.502;7.108;2022-09-01T15:15:17;27.00;60.30
31619;DHT22;18230;51.502;7.108;2022-09-01T15:20:17;27.10;60.40
31619;DHT22;18230;51.502;7.108;2022-09-01T15:25:37;27.10;59.70
31619;DHT22;18230;51.502;7.108;2022-09-01T15:30:42;27.00;59.10
31619;DHT22;18230;51.502;7.108;2022-09-01T15:35:45;27.00;59.10
31619;DHT22;18230;51.502;7.108;2022-09-01T15:40:46;27.10;59.00
31619;DHT22;18230;51.502;7.108;2022-09-01T15:45:48;27.20;58.50
31619;DHT22;18230;51.502;7.108;2022-09-01T15:50:49;27.10;58.00
31619;DHT22;18230;51.502;7.108;2022-09-01T15:55:49;27.10;58.10
31619;DHT22;18230;51.502;7.108;2022-09-01T16:00:50;27.10;57.90
31619;DHT22;18230;51.502;7.108;2022-09-01T16:05:50;27.20;57.70
31619;DHT22;18230;51.502;7.108;2022-09-01T16:10:51;27.40;57.50
31619;DHT22;18230;51.502;7.108;2022-09-01T16:26:43;27.40;56.20
31619;DHT22;18230;51.502;7.108;2022-09-01T16:31:49;27.20;56.50
31619;DHT22;18230;51.502;7.108;2022-09-01T16:47:45;27.10;56.20
31619;DHT22;18230;51.502;7.108;2022-09-01T16:53:02;27.20;56.20
31619;DHT22;18230;51.502;7.108;2022-09-01T17:03:52;27.20;56.10
31619;DHT22;18230;51.502;7.108;2022-09-01T17:09:10;27.10;56.10
31619;DHT22;18230;51.502;7.108;2022-09-01T17:14:17;26.80;56.30
31619;DHT22;18230;51.502;7.108;2022-09-01T17:19:33;26.80;56.70
31619;DHT22;18230;51.502;7.108;2022-09-01T17:24:42;26.60;56.70
31619;DHT22;18230;51.502;7.108;2022-09-01T17:29:47;26.50;56.80
31619;DHT22;18230;51.502;7.108;2022-09-01T17:51:33;25.70;59.90
31619;DHT22;18230;51.502;7.108;2022-09-01T17:56:55;25.40;61.10
31619;DHT22;18230;51.502;7.108;2022-09-01T18:07:48;24.70;63.50
31619;DHT22;18230;51.502;7.108;2022-09-01T18:13:01;24.50;64.80
31619;DHT22;18230;51.502;7.108;2022-09-01T18:18:22;24.30;65.40
31619;DHT22;18230;51.502;7.108;2022-09-01T18:23:28;24.10;66.50
31619;DHT22;18230;51.502;7.108;2022-09-01T18:28:30;23.90;67.30
31619;DHT22;18230;51.502;7.108;2022-09-01T18:39:10;23.60;68.70
31619;DHT22;18230;51.502;7.108;2022-09-01T18:44:23;23.40;68.90
31619;DHT22;18230;51.502;7.108;2022-09-01T18:49:29;23.30;69.60
31619;DHT22;18230;51.502;7.108;2022-09-01T19:04:44;23.00;70.80
31619;DHT22;18230;51.502;7.108;2022-09-01T19:09:53;22.80;70.90
31619;DHT22;18230;51.502;7.108;2022-09-01T19:15:30;22.70;71.60
31619;DHT22;18230;51.502;7.108;2022-09-01T19:20:39;22.60;71.90
31619;DHT22;18230;51.502;7.108;2022-09-01T19:25:41;22.50;72.10
31619;DHT22;18230;51.502;7.108;2022-09-01T19:30:47;22.40;72.60
31619;DHT22;18230;51.502;7.108;2022-09-01T19:35:53;22.30;72.80
31619;DHT22;18230;51.502;7.108;2022-09-01T19:40:58;22.10;73.30
31619;DHT22;18230;51.502;7.108;2022-09-01T19:46:29;22.00;73.90
31619;DHT22;18230;51.502;7.108;2022-09-01T19:57:33;21.90;74.50
31619;DHT22;18230;51.502;7.108;2022-09-01T20:02:45;21.80;74.90
31619;DHT22;18230;51.502;7.108;2022-09-01T20:18:28;21.50;76.20
31619;DHT22;18230;51.502;7.108;2022-09-01T20:28:47;21.30;77.10
31619;DHT22;18230;51.502;7.108;2022-09-01T20:34:30;21.30;77.40
31619;DHT22;18230;51.502;7.108;2022-09-01T20:39:41;21.20;78.10
31619;DHT22;18230;51.502;7.108;2022-09-01T20:45:04;21.10;78.10
31619;DHT22;18230;51.502;7.108;2022-09-01T20:50:11;21.00;78.80
31619;DHT22;18230;51.502;7.108;2022-09-01T21:00:26;20.90;79.40
31619;DHT22;18230;51.502;7.108;2022-09-01T21:21:41;20.60;80.60
31619;DHT22;18230;51.502;7.108;2022-09-01T21:26:44;20.50;81.00
31619;DHT22;18230;51.502;7.108;2022-09-01T21:31:47;20.40;81.50
31619;DHT22;18230;51.502;7.108;2022-09-01T21:36:48;20.30;81.90
31619;DHT22;18230;51.502;7.108;2022-09-01T21:41:48;20.20;82.70
31619;DHT22;18230;51.502;7.108;2022-09-01T21:46:49;20.10;83.20
31619;DHT22;18230;51.502;7.108;2022-09-01T21:51:50;19.90;83.90
31619;DHT22;18230;51.502;7.108;2022-09-01T21:56:51;19.90;84.40
31619;DHT22;18230;51.502;7.108;2022-09-01T22:01:52;19.80;84.90
31619;DHT22;18230;51.502;7.108;2022-09-01T22:06:53;19.70;85.40
31619;DHT22;18230;51.502;7.108;2022-09-01T22:11:54;19.60;85.70
31619;DHT22;18230;51.502;7.108;2022-09-01T22:16:54;19.60;85.80
31619;DHT22;18230;51.502;7.108;2022-09-01T22:21:55;19.50;86.20
31619;DHT22;18230;51.502;7.108;2022-09-01T22:26:56;19.50;86.60
31619;DHT22;18230;51.502;7.108;2022-09-01T22:31:56;19.40;86.80
31619;DHT22;18230;51.502;7.108;2022-09-01T22:36:59;19.30;87.30
31619;DHT22;18230;51.502;7.108;2022-09-01T22:42:00;19.20;87.60
31619;DHT22;18230;51.502;7.108;2022-09-01T22:47:03;19.30;87.70
31619;DHT22;18230;51.502;7.108;2022-09-01T22:52:03;19.20;88.20
31619;DHT22;18230;51.502;7.108;2022-09-01T22:57:04;19.20;88.30
31619;DHT22;18230;51.502;7.108;2022-09-01T23:02:05;19.20;88.70
31619;DHT22;18230;51.502;7.108;2022-09-01T23:07:06;19.10;89.00
31619;DHT22;18230;51.502;7.108;2022-09-01T23:12:07;19.10;89.70
31619;DHT22;18230;51.502;7.108;2022-09-01T23:17:07;18.90;90.10
31619;DHT22;18230;51.502;7.108;2022-09-01T23:22:08;18.90;90.40
31619;DHT22;18230;51.502;7.108;2022-09-01T23:27:09;18.80;90.50
31619;DHT22;18230;51.502;7.108;2022-09-01T23:32:10;18.80;90.80
31619;DHT22;18230;51.502;7.108;2022-09-01T23:37:10;18.60;91.00
31619;DHT22;18230;51.502;7.108;2022-09-01T23:42:11;18.60;91.30
31619;DHT22;18230;51.502;7.108;2022-09-01T23:47:12;18.50;91.40
31619;DHT22;18230;51.502;7.108;2022-09-01T23:52:12;18.40;92.00
31619;DHT22;18230;51.502;7.108;2022-09-01T23:57:13;18.40;92.00
